Time;durP1;ratioP1;P1;durP2;ratioP2;P2;SDS_P1;SDS_P2;PMS_P1;PMS_P2;Temp;Humidity;BMP_temperature;BMP_pressure;BME280_temperature;BME280_humidity;BME280_pressure;Samples;Min_cycle;Max_cycle;Signal;HPM_P1;HPM_P2
2021/12/01 00:00:47;;;;;;;48.17;28.00;;;;;;;17.58;53.86;100077.00;5066972;28;20075;-40
2021/12/01 00:03:14;;;;;;;46.17;26.58;;;;;;;17.56;53.78;100074.47;5070257;28;20487;-40
2021/12/01 00:05:42;;;;;;;51.55;28.15;;;;;;;17.55;53.76;100054.06;5071622;28;20330;-40
2021/12/01 00:08:09;;;;;;;49.42;28.30;;;;;;;17.56;53.77;100049.53;5063754;28;20471;-40
2021/12/01 00:10:38;;;;;;;39.85;24.30;;;;;;;17.55;53.82;100037.16;5069939;28;20131;-40
2021/12/01 00:13:07;;;;;;;44.45;26.70;;;;;;;17.54;53.88;100016.72;5069409;28;20427;-40
2021/12/01 00:15:34;;;;;;;44.45;26.02;;;;;;;17.52;53.80;100014.19;5065791;28;20040;-40
2021/12/01 00:18:01;;;;;;;47.88;27.10;;;;;;;17.50;54.07;99998.31;5068331;28;21937;-41
2021/12/01 00:20:28;;;;;;;48.30;27.00;;;;;;;17.51;53.84;100002.66;5066124;28;20136;-41
2021/12/01 00:22:55;;;;;;;44.05;26.60;;;;;;;17.50;54.07;99992.13;5067516;28;20055;-43
2021/12/01 00:25:23;;;;;;;43.97;24.60;;;;;;;17.50;54.17;99984.09;5067450;28;20138;-41
2021/12/01 00:27:51;;;;;;;46.20;27.17;;;;;;;17.49;54.41;99977.06;5066737;28;20052;-40
2021/12/01 00:30:19;;;;;;;41.42;25.23;;;;;;;17.48;53.89;99967.31;5065926;28;20048;-41
2021/12/01 00:32:46;;;;;;;39.67;23.48;;;;;;;17.47;54.45;99955.78;5066933;28;20668;-41
2021/12/01 00:35:13;;;;;;;43.25;25.20;;;;;;;17.47;54.50;99955.78;5066183;28;20436;-40
2021/12/01 00:37:40;;;;;;;45.10;26.45;;;;;;;17.47;54.43;99941.56;5067975;28;20048;-40
2021/12/01 00:40:10;;;;;;;39.60;24.83;;;;;;;17.46;54.54;99935.38;5068749;28;20044;-40
2021/12/01 00:42:37;;;;;;;43.33;24.80;;;;;;;17.46;54.19;99930.00;5068165;28;20055;-41
2021/12/01 00:45:16;;;;;;;40.10;23.63;;;;;;;17.47;54.44;99933.50;5068534;28;20057;-41
2021/12/01 00:47:44;;;;;;;38.63;23.73;;;;;;;17.46;54.29;99926.50;5069801;28;20059;-41
2021/12/01 00:50:14;;;;;;;39.75;22.95;;;;;;;17.46;54.49;99923.81;5065994;28;20472;-41
2021/12/01 00:52:40;;;;;;;40.15;23.58;;;;;;;17.46;54.90;99916.59;5066125;28;20135;-41
2021/12/01 00:55:08;;;;;;;38.78;22.35;;;;;;;17.45;54.63;99895.38;5070074;28;20068;-41
2021/12/01 00:57:35;;;;;;;33.95;20.23;;;;;;;17.46;54.53;99897.03;5064683;28;20132;-40
2021/12/01 01:00:04;;;;;;;35.80;21.38;;;;;;;17.45;54.27;99893.53;5068484;28;20424;-40
2021/12/01 01:02:31;;;;;;;34.63;20.65;;;;;;;17.46;54.37;99886.31;5066741;28;20053;-41
2021/12/01 01:04:58;;;;;;;39.45;21.02;;;;;;;17.44;54.16;99873.06;5068218;28;20056;-41
2021/12/01 01:07:24;;;;;;;36.83;20.63;;;;;;;17.44;54.27;99874.91;5064627;28;20183;-42
2021/12/01 01:09:51;;;;;;;36.80;21.80;;;;;;;17.44;54.46;99866.88;5068218;28;20088;-40
2021/12/01 01:18:05;;;;;;;31.17;18.33;;;;;;;17.43;54.22;99859.88;5067630;28;20048;-41
2021/12/01 01:20:33;;;;;;;30.25;17.95;;;;;;;17.42;54.37;99847.47;5065987;28;20132;-40
2021/12/01 01:23:00;;;;;;;33.67;18.77;;;;;;;17.41;54.54;99846.66;5064734;28;20531;-40
2021/12/01 01:25:27;;;;;;;29.67;17.48;;;;;;;17.41;54.27;99843.97;5067590;28;20120;-42
2021/12/01 01:27:53;;;;;;;30.95;17.83;;;;;;;17.40;54.99;99834.25;5067438;28;20132;-40
2021/12/01 01:30:21;;;;;;;29.73;17.80;;;;;;;17.41;54.72;99824.41;5066855;28;20127;-41
2021/12/01 01:32:47;;;;;;;27.42;16.85;;;;;;;17.40;54.97;99820.84;5066785;28;20050;-40
2021/12/01 01:35:14;;;;;;;30.83;16.73;;;;;;;17.41;54.62;99821.72;5064223;28;20432;-40
2021/12/01 01:37:41;;;;;;;29.08;15.95;;;;;;;17.39;54.70;99821.88;5067076;28;20375;-40
2021/12/01 01:40:09;;;;;;;26.27;15.38;;;;;;;17.41;54.65;99816.34;5067686;28;20044;-40
2021/12/01 01:42:36;;;;;;;26.85;15.70;;;;;;;17.38;55.01;99808.66;5065897;28;20435;-41
2021/12/01 01:45:04;;;;;;;27.05;15.65;;;;;;;17.39;54.90;99789.72;5061594;28;20044;-40
2021/12/01 01:47:30;;;;;;;24.02;14.32;;;;;;;17.38;55.20;99798.78;5068786;28;20353;-40
2021/12/01 01:50:15;;;;;;;27.20;15.93;;;;;;;17.38;54.90;99796.09;5065808;28;20070;-40
2021/12/01 01:52:41;;;;;;;24.15;14.35;;;;;;;17.37;54.86;99790.94;5067619;28;20052;-40
2021/12/01 01:55:08;;;;;;;24.15;14.48;;;;;;;17.37;54.59;99785.56;5066486;28;20131;-40
2021/12/01 01:57:35;;;;;;;22.20;13.38;;;;;;;17.35;54.74;99761.63;5066704;28;20131;-41
2021/12/01 02:00:08;;;;;;;21.42;12.88;;;;;;;17.37;54.66;99773.00;5066076;28;20053;-40
2021/12/01 02:02:35;;;;;;;21.40;12.77;;;;;;;17.36;54.44;99790.06;5067698;28;20143;-40
2021/12/01 02:05:02;;;;;;;21.63;12.32;;;;;;;17.35;55.09;99760.78;5065592;28;20052;-40
2021/12/01 02:07:29;;;;;;;17.58;10.55;;;;;;;17.34;54.74;99759.13;5067114;28;20049;-40
2021/12/01 02:09:56;;;;;;;17.42;10.52;;;;;;;17.34;54.50;99748.41;5063980;28;20454;-40
2021/12/01 02:12:22;;;;;;;18.23;10.45;;;;;;;17.32;54.69;99734.34;5065500;28;20052;-40
2021/12/01 02:14:49;;;;;;;18.17;10.43;;;;;;;17.31;54.77;99713.94;5064210;28;20506;-40
2021/12/01 02:17:15;;;;;;;18.60;10.95;;;;;;;17.29;54.90;99714.13;5066762;28;20516;-40
2021/12/01 02:19:42;;;;;;;21.02;10.82;;;;;;;17.28;55.24;99705.25;5067192;28;20048;-40
2021/12/01 02:22:09;;;;;;;16.95;9.48;;;;;;;17.29;54.56;99706.09;5065107;28;20339;-40
2021/12/01 02:24:35;;;;;;;13.88;8.20;;;;;;;17.28;54.84;99697.22;5065135;28;20075;-40
2021/12/01 02:27:02;;;;;;;15.82;9.27;;;;;;;17.27;55.21;99689.38;5062541;28;20680;-40
2021/12/01 02:29:29;;;;;;;13.10;8.15;;;;;;;17.27;54.52;99686.69;5066970;28;20159;-40
2021/12/01 02:31:55;;;;;;;12.05;8.18;;;;;;;17.27;54.81;99670.63;5067774;28;20049;-40
2021/12/01 02:34:24;;;;;;;12.38;7.90;;;;;;;17.27;54.66;99665.25;5070589;28;20106;-41
2021/12/01 02:36:53;;;;;;;12.48;7.28;;;;;;;17.26;54.69;99651.03;5066540;28;20068;-40
2021/12/01 02:39:20;;;;;;;12.98;7.45;;;;;;;17.25;54.60;99635.16;5071211;28;20080;-40
2021/12/01 02:41:52;;;;;;;12.45;7.32;;;;;;;17.24;55.01;99623.59;5064790;28;20396;-40
2021/12/01 02:44:20;;;;;;;11.20;6.97;;;;;;;17.24;54.62;99626.28;5066924;28;20410;-40
2021/12/01 02:46:47;;;;;;;10.48;6.10;;;;;;;17.24;55.16;99612.88;5061568;28;20429;-40
2021/12/01 02:49:20;;;;;;;9.68;6.13;;;;;;;17.23;54.76;99624.63;5066624;28;20125;-40
2021/12/01 02:51:49;;;;;;;10.02;6.18;;;;;;;17.24;55.09;99620.91;5064495;28;20435;-40
2021/12/01 02:54:15;;;;;;;9.63;5.85;;;;;;;17.23;54.99;99610.41;5066247;28;20047;-40
2021/12/01 02:56:47;;;;;;;8.15;5.30;;;;;;;17.23;55.02;99613.06;5064708;28;20059;-40
2021/12/01 02:59:14;;;;;;;8.88;5.22;;;;;;;17.22;55.01;99596.19;5064547;28;20435;-40
2021/12/01 03:01:41;;;;;;;8.38;5.65;;;;;;;17.21;54.39;99594.53;5064927;28;20055;-40
2021/12/01 03:04:09;;;;;;;8.63;5.07;;;;;;;17.20;54.37;99587.47;5065907;28;20132;-40
2021/12/01 03:06:36;;;;;;;8.95;5.50;;;;;;;17.20;54.91;99571.41;5064460;28;20048;-40
2021/12/01 03:09:07;;;;;;;7.70;4.35;;;;;;;17.21;54.86;99578.47;5061695;28;20159;-40
2021/12/01 03:11:35;;;;;;;8.45;4.70;;;;;;;17.20;54.66;99557.19;5064103;28;20053;-39
2021/12/01 03:14:07;;;;;;;7.03;4.10;;;;;;;17.18;54.99;99561.91;5065644;28;20064;-40
2021/12/01 03:16:35;;;;;;;7.28;4.30;;;;;;;17.19;54.85;99555.53;5068134;28;20359;-41
2021/12/01 03:19:02;;;;;;;7.50;3.92;;;;;;;17.18;54.57;99549.34;5068990;28;20084;-41
2021/12/01 03:21:29;;;;;;;9.60;4.53;;;;;;;17.17;54.83;99528.94;5069892;28;20053;-41
2021/12/01 03:23:55;;;;;;;6.50;4.30;;;;;;;17.17;54.71;99533.47;5064925;28;20079;-41
2021/12/01 03:26:22;;;;;;;6.75;4.00;;;;;;;17.16;55.17;99518.41;5068810;28;20136;-42
2021/12/01 03:28:48;;;;;;;6.45;3.75;;;;;;;17.16;54.40;99519.22;5067398;28;20056;-41
2021/12/01 03:31:15;;;;;;;7.82;4.47;;;;;;;17.15;54.41;99498.00;5069301;28;20053;-41
2021/12/01 03:33:43;;;;;;;6.28;4.07;;;;;;;17.15;55.32;99495.31;5067791;28;20071;-41
2021/12/01 03:36:09;;;;;;;6.60;3.55;;;;;;;17.15;55.18;99484.63;5069565;28;20083;-41
2021/12/01 03:38:36;;;;;;;7.82;3.65;;;;;;;17.13;54.88;99482.13;5068915;28;20363;-41
2021/12/01 03:41:02;;;;;;;5.90;3.67;;;;;;;17.12;55.16;99477.78;5068126;28;20450;-41
2021/12/01 03:43:29;;;;;;;6.32;3.35;;;;;;;17.13;55.24;99481.31;5066672;28;20045;-40
2021/12/01 03:45:56;;;;;;;5.75;3.55;;;;;;;17.11;54.66;99465.41;5069334;28;20079;-42
2021/12/01 03:48:23;;;;;;;4.68;2.70;;;;;;;17.13;54.31;99454.53;5067310;28;20056;-41
2021/12/01 03:50:51;;;;;;;5.38;3.35;;;;;;;17.11;54.86;99440.47;5070372;28;20049;-41
2021/12/01 03:53:20;;;;;;;4.63;3.05;;;;;;;17.10;54.41;99428.94;5069115;28;20139;-41
2021/12/01 03:55:46;;;;;;;6.05;3.05;;;;;;;17.10;54.37;99423.59;5070624;28;20119;-41
2021/12/01 03:58:13;;;;;;;4.28;2.88;;;;;;;17.09;54.94;99421.94;5068621;28;20052;-41
2021/12/01 04:00:39;;;;;;;5.18;2.88;;;;;;;17.09;54.59;99413.91;5067985;28;20139;-41
2021/12/01 04:03:06;;;;;;;4.95;3.10;;;;;;;17.09;55.21;99411.22;5068004;28;20052;-41
2021/12/01 04:05:33;;;;;;;5.53;3.10;;;;;;;17.09;54.48;99399.69;5069177;28;20048;-41
2021/12/01 04:08:01;;;;;;;4.53;3.33;;;;;;;17.08;54.72;99396.16;5069342;28;20351;-41
2021/12/01 04:10:29;;;;;;;5.32;3.30;;;;;;;17.07;54.56;99383.78;5068683;28;20052;-41
2021/12/01 04:12:55;;;;;;;4.15;2.72;;;;;;;17.07;54.43;99382.97;5069556;28;20143;-41
2021/12/01 04:15:23;;;;;;;4.88;2.90;;;;;;;17.05;54.30;99367.09;5065553;28;20059;-41
2021/12/01 04:17:50;;;;;;;4.47;2.83;;;;;;;17.04;54.34;99368.09;5070166;28;20048;-41
2021/12/01 04:20:18;;;;;;;5.25;2.50;;;;;;;17.06;54.06;99360.72;5065844;28;20139;-42
2021/12/01 04:22:47;;;;;;;4.57;2.90;;;;;;;17.03;55.07;99345.84;5070259;28;20091;-42
2021/12/01 04:25:14;;;;;;;3.65;2.72;;;;;;;17.02;54.74;99362.09;5066668;28;20427;-41
2021/12/01 04:27:41;;;;;;;4.70;2.70;;;;;;;17.00;54.95;99361.44;5066110;28;20432;-41
2021/12/01 04:30:10;;;;;;;4.90;2.70;;;;;;;17.00;54.39;99346.25;5069239;28;20151;-41
2021/12/01 04:32:37;;;;;;;4.93;2.33;;;;;;;16.98;54.57;99342.06;5072007;28;20071;-43
2021/12/01 04:35:05;;;;;;;5.13;2.45;;;;;;;16.97;54.16;99329.72;5069018;28;20052;-43
2021/12/01 04:37:31;;;;;;;4.18;2.50;;;;;;;16.96;54.84;99323.50;5068820;28;20677;-42
2021/12/01 04:39:58;;;;;;;3.80;2.40;;;;;;;16.95;55.02;99313.81;5066985;28;20190;-42
2021/12/01 04:42:24;;;;;;;4.53;2.03;;;;;;;16.94;54.63;99303.31;5069635;28;20067;-42
2021/12/01 04:44:51;;;;;;;3.75;2.50;;;;;;;16.93;54.65;99301.66;5067917;28;20045;-43
2021/12/01 04:47:26;;;;;;;3.88;2.65;;;;;;;16.93;54.75;99298.97;5068039;28;20602;-41
2021/12/01 04:49:53;;;;;;;3.08;2.30;;;;;;;16.91;54.95;99285.75;5068505;28;20048;-41
2021/12/01 04:52:19;;;;;;;3.85;2.28;;;;;;;16.90;54.51;99286.78;5065894;28;20044;-41
2021/12/01 04:54:46;;;;;;;4.38;2.00;;;;;;;16.90;54.23;99285.97;5069609;28;20139;-42
2021/12/01 04:57:13;;;;;;;2.60;2.08;;;;;;;16.88;55.05;99274.59;5068490;28;20417;-41
2021/12/01 04:59:40;;;;;;;2.53;1.80;;;;;;;16.86;54.77;99269.44;5067168;28;20056;-42
2021/12/01 05:02:06;;;;;;;2.92;2.00;;;;;;;16.85;54.98;99277.66;5067274;28;20048;-41
2021/12/01 05:04:33;;;;;;;3.15;2.10;;;;;;;16.85;54.34;99253.59;5067774;28;20051;-41
2021/12/01 05:07:00;;;;;;;4.72;1.98;;;;;;;16.83;54.90;99258.28;5064922;28;20478;-41
2021/12/01 05:09:26;;;;;;;4.57;2.25;;;;;;;16.82;55.08;99252.09;5066981;28;20052;-41
2021/12/01 05:11:53;;;;;;;3.28;1.98;;;;;;;16.82;54.62;99251.28;5067461;28;20052;-41
2021/12/01 05:14:20;;;;;;;3.65;2.13;;;;;;;16.82;55.61;99256.63;5066613;28;20194;-41
2021/12/01 05:16:46;;;;;;;4.13;2.22;;;;;;;16.81;54.81;99249.63;5066473;28;20058;-42
2021/12/01 05:19:13;;;;;;;5.50;2.65;;;;;;;16.80;54.80;99243.41;5068779;28;20442;-41
2021/12/01 05:21:41;;;;;;;5.70;3.33;;;;;;;16.80;55.07;99232.69;5067564;28;20040;-41
2021/12/01 05:24:08;;;;;;;7.10;3.80;;;;;;;16.79;55.22;99231.06;5066578;28;20139;-41
2021/12/01 05:26:35;;;;;;;6.75;3.97;;;;;;;16.79;54.76;99233.72;5065646;28;20045;-41
2021/12/01 05:29:03;;;;;;;7.95;4.60;;;;;;;16.79;55.34;99225.69;5067895;28;20678;-41
2021/12/01 05:31:29;;;;;;;8.52;4.97;;;;;;;16.77;55.54;99223.22;5064922;28;20068;-41
2021/12/01 05:33:56;;;;;;;10.35;6.13;;;;;;;16.77;55.37;99209.84;5067989;28;20090;-40
2021/12/01 05:36:22;;;;;;;9.32;5.95;;;;;;;16.76;54.64;99221.56;5067272;28;20432;-41
2021/12/01 05:38:49;;;;;;;8.80;5.35;;;;;;;16.76;54.75;99208.19;5062096;28;20086;-41
2021/12/01 05:41:16;;;;;;;11.57;7.25;;;;;;;16.76;54.81;99194.81;5065743;28;20132;-41
2021/12/01 05:43:43;;;;;;;12.02;6.97;;;;;;;16.76;55.60;99188.59;5066187;28;20143;-41
2021/12/01 05:46:10;;;;;;;13.70;7.63;;;;;;;16.75;55.43;99193.13;5066430;28;20159;-41
2021/12/01 05:48:37;;;;;;;12.75;7.53;;;;;;;16.75;55.62;99197.66;5065727;28;20053;-40
2021/12/01 05:51:03;;;;;;;14.60;8.95;;;;;;;16.74;55.35;99194.16;5067325;28;20135;-41
2021/12/01 05:53:30;;;;;;;14.68;7.78;;;;;;;16.73;55.32;99178.31;5065618;28;20666;-41
2021/12/01 05:55:57;;;;;;;13.82;7.97;;;;;;;16.73;55.32;99184.47;5069395;28;20040;-40
2021/12/01 05:58:23;;;;;;;15.07;8.50;;;;;;;16.74;55.08;99179.94;5062964;28;20131;-41
2021/12/01 06:00:50;;;;;;;13.07;7.75;;;;;;;16.72;55.15;99174.75;5065697;28;20047;-41
2021/12/01 06:03:17;;;;;;;14.82;7.78;;;;;;;16.73;54.92;99172.94;5069121;28;20375;-41
2021/12/01 06:05:45;;;;;;;13.27;7.20;;;;;;;16.71;54.89;99178.44;5067671;28;20126;-40
2021/12/01 06:08:12;;;;;;;13.95;7.72;;;;;;;16.70;54.80;99179.47;5065781;28;20056;-41
2021/12/01 06:10:40;;;;;;;17.08;8.95;;;;;;;16.70;54.76;99174.09;5067884;28;20147;-41
2021/12/01 06:13:08;;;;;;;13.80;8.48;;;;;;;16.69;55.26;99172.47;5066296;28;20131;-41
2021/12/01 06:15:34;;;;;;;16.77;8.95;;;;;;;16.69;55.73;99175.13;5065389;28;20075;-41
2021/12/01 06:18:01;;;;;;;13.80;8.02;;;;;;;16.68;55.23;99156.56;5064053;28;20683;-41
2021/12/01 06:20:27;;;;;;;14.20;8.43;;;;;;;16.68;55.36;99154.75;5066257;28;20147;-41
2021/12/01 06:22:54;;;;;;;14.23;8.07;;;;;;;16.67;55.26;99155.75;5064487;28;20131;-42
2021/12/01 06:25:21;;;;;;;16.45;8.45;;;;;;;16.67;54.94;99147.72;5063822;28;20228;-41
2021/12/01 06:27:53;;;;;;;14.50;8.15;;;;;;;16.68;55.27;99135.16;5065218;28;20045;-41
2021/12/01 06:30:21;;;;;;;15.73;7.65;;;;;;;16.68;55.36;99128.00;5066535;28;20079;-41
2021/12/01 06:32:49;;;;;;;12.93;7.50;;;;;;;16.67;55.46;99137.03;5067853;28;20528;-41
2021/12/01 06:35:16;;;;;;;12.15;6.85;;;;;;;16.67;55.31;99123.66;5063893;28;20143;-41
2021/12/01 06:37:43;;;;;;;12.13;6.82;;;;;;;16.68;54.97;99127.16;5066212;28;20084;-41
2021/12/01 06:40:11;;;;;;;12.05;6.72;;;;;;;16.68;54.85;99127.16;5063478;28;20680;-41
2021/12/01 06:42:38;;;;;;;11.98;6.93;;;;;;;16.67;55.58;99125.50;5065519;28;20074;-41
2021/12/01 06:45:06;;;;;;;10.45;6.28;;;;;;;16.66;54.97;99132.69;5057359;28;20041;-41
2021/12/01 06:47:33;;;;;;;13.90;7.25;;;;;;;16.68;54.91;99117.31;5063076;28;20452;-42
2021/12/01 06:50:01;;;;;;;17.83;9.93;;;;;;;16.73;55.48;99108.75;5060443;28;20087;-41
2021/12/01 06:52:28;;;;;;;16.90;9.90;;;;;;;16.80;55.62;99104.28;5060593;28;20140;-41
2021/12/01 06:54:56;;;;;;;18.92;9.85;;;;;;;16.88;55.54;99095.31;5061519;28;20722;-41
2021/12/01 06:57:24;;;;;;;17.58;9.57;;;;;;;16.96;54.69;99097.88;5057949;28;20045;-41
2021/12/01 06:59:51;;;;;;;16.85;9.88;;;;;;;17.06;54.80;99095.72;5056895;28;20590;-41
2021/12/01 07:02:17;;;;;;;19.10;10.95;;;;;;;17.15;54.33;99086.53;5055828;28;20049;-41
2021/12/01 07:04:45;;;;;;;19.88;10.45;;;;;;;17.25;54.89;99087.06;5061542;28;20049;-41
2021/12/01 07:07:12;;;;;;;17.80;9.52;;;;;;;17.35;54.61;99077.88;5064155;28;20421;-41
2021/12/01 07:09:39;;;;;;;19.90;10.85;;;;;;;17.44;54.27;99074.03;5059543;28;20051;-41
2021/12/01 07:12:06;;;;;;;38.78;20.75;;;;;;;17.51;54.21;99073.06;5061177;28;20076;-41
2021/12/01 07:14:33;;;;;;;42.63;22.17;;;;;;;17.59;54.18;99074.78;5059865;28;21578;-41
2021/12/01 07:16:59;;;;;;;54.33;28.85;;;;;;;17.66;54.01;99073.00;5060712;28;20041;-41
2021/12/01 07:19:26;;;;;;;43.85;24.10;;;;;;;17.74;54.10;99062.16;5058247;28;20053;-40
2021/12/01 07:21:53;;;;;;;45.83;24.63;;;;;;;17.80;54.11;99049.81;5062985;28;20143;-40
2021/12/01 07:24:20;;;;;;;44.47;23.58;;;;;;;17.87;53.62;99061.41;5057165;28;20382;-40
2021/12/01 07:26:46;;;;;;;43.42;23.67;;;;;;;17.92;53.19;99066.19;5061002;28;20077;-40
2021/12/01 07:29:13;;;;;;;43.28;24.13;;;;;;;17.98;53.33;99049.34;5059239;28;20448;-40
2021/12/01 07:31:40;;;;;;;42.78;23.80;;;;;;;18.01;53.54;99040.91;5059465;28;20427;-40
2021/12/01 07:34:06;;;;;;;48.50;26.35;;;;;;;18.06;52.82;99037.63;5061680;28;20338;-40
2021/12/01 07:36:33;;;;;;;44.08;24.45;;;;;;;18.10;53.42;99042.41;5059940;28;20064;-40
2021/12/01 07:39:00;;;;;;;48.15;26.85;;;;;;;18.14;53.31;99024.88;5058514;28;20138;-40
2021/12/01 07:41:26;;;;;;;40.13;22.90;;;;;;;18.18;53.18;99031.50;5055815;28;20132;-40
2021/12/01 07:43:53;;;;;;;50.17;26.35;;;;;;;18.22;52.82;99030.06;5059265;28;20384;-40
2021/12/01 07:46:20;;;;;;;45.17;25.10;;;;;;;18.25;53.19;99024.31;5059473;28;20172;-40
2021/12/01 07:48:47;;;;;;;44.33;24.80;;;;;;;18.30;53.08;99028.25;5060009;28;20070;-40
2021/12/01 07:51:14;;;;;;;41.00;22.13;;;;;;;18.32;53.11;99027.00;5058222;28;20447;-40
2021/12/01 07:53:41;;;;;;;38.90;21.23;;;;;;;18.35;52.89;99028.47;5060170;28;20045;-40
2021/12/01 07:56:07;;;;;;;46.83;27.00;;;;;;;18.38;52.81;99036.13;5058514;28;20040;-40
2021/12/01 07:58:34;;;;;;;61.88;33.88;;;;;;;18.39;52.49;99019.81;5057325;28;20109;-40
2021/12/01 08:01:01;;;;;;;57.72;33.47;;;;;;;18.43;52.52;99022.94;5062049;28;20403;-40
2021/12/01 08:03:28;;;;;;;61.78;34.92;;;;;;;18.45;52.36;99018.19;5059258;28;20326;-40
2021/12/01 08:05:54;;;;;;;46.50;25.70;;;;;;;18.47;52.47;99034.94;5066429;28;20124;-40
2021/12/01 08:08:21;;;;;;;57.83;32.53;;;;;;;18.50;52.55;99066.72;5060453;28;20061;-40
2021/12/01 08:10:47;;;;;;;77.90;42.65;;;;;;;18.53;52.47;99070.84;5063909;28;20135;-40
2021/12/01 08:13:14;;;;;;;84.80;46.40;;;;;;;18.54;52.84;99067.97;5069807;28;20055;-40
2021/12/01 08:15:48;;;;;;;84.82;47.10;;;;;;;18.57;52.63;99069.41;5065986;28;20048;-40
2021/12/01 08:18:15;;;;;;;90.15;48.70;;;;;;;18.59;52.46;99053.97;5063079;28;20087;-40
2021/12/01 08:20:42;;;;;;;87.53;48.47;;;;;;;18.62;52.59;99058.94;5065993;28;20783;-40
2021/12/01 08:23:09;;;;;;;86.47;47.38;;;;;;;18.64;52.09;99068.41;5064154;28;20128;-40
2021/12/01 08:25:36;;;;;;;89.50;48.88;;;;;;;18.66;52.38;99061.00;5063295;28;20045;-40
2021/12/01 08:28:04;;;;;;;81.32;45.80;;;;;;;18.68;52.79;99066.97;5059763;28;20047;-40
2021/12/01 08:30:31;;;;;;;82.85;45.88;;;;;;;18.70;53.04;99064.16;5062717;28;20114;-40
2021/12/01 08:32:59;;;;;;;83.68;46.20;;;;;;;18.72;52.43;99062.06;5061504;28;20155;-41
2021/12/01 08:35:26;;;;;;;76.15;42.58;;;;;;;18.74;52.55;99068.09;5063614;28;20048;-40
2021/12/01 08:37:52;;;;;;;73.95;41.53;;;;;;;18.73;52.51;99072.63;5060337;28;20045;-40
2021/12/01 08:40:19;;;;;;;74.53;41.20;;;;;;;18.76;52.44;99063.31;5063833;28;20049;-40
2021/12/01 08:42:46;;;;;;;71.57;40.10;;;;;;;18.76;52.09;99074.06;5062648;28;20061;-40
2021/12/01 08:45:14;;;;;;;65.15;36.95;;;;;;;18.78;52.08;99073.88;5062814;28;20131;-42
2021/12/01 08:47:41;;;;;;;64.93;36.28;;;;;;;18.78;51.82;99072.03;5059956;28;20124;-40
2021/12/01 08:50:09;;;;;;;63.13;36.05;;;;;;;18.78;52.39;99074.72;5065542;28;20135;-40
2021/12/01 08:52:37;;;;;;;61.20;33.70;;;;;;;18.79;51.82;99079.03;5065095;28;20107;-40
2021/12/01 08:55:05;;;;;;;58.22;31.85;;;;;;;18.79;52.05;99083.56;5065579;28;20087;-40
2021/12/01 08:57:32;;;;;;;62.92;34.05;;;;;;;18.78;52.52;99074.72;5063939;28;20059;-40
2021/12/01 08:59:58;;;;;;;62.83;34.55;;;;;;;18.78;52.21;99085.44;5061041;28;20045;-40
2021/12/01 09:02:25;;;;;;;70.78;39.67;;;;;;;18.77;51.94;99097.19;5059168;28;20238;-40
2021/12/01 09:04:52;;;;;;;82.13;43.70;;;;;;;18.76;52.04;99100.91;5062709;28;20086;-40
2021/12/01 09:07:19;;;;;;;79.13;43.17;;;;;;;18.75;51.95;99110.00;5062381;28;20051;-40
2021/12/01 09:09:46;;;;;;;74.38;41.67;;;;;;;18.76;52.08;99110.81;5063202;28;20432;-40
2021/12/01 09:12:14;;;;;;;73.13;39.78;;;;;;;18.74;52.05;99119.91;5065241;28;20051;-40
2021/12/01 09:14:43;;;;;;;79.32;41.83;;;;;;;18.73;51.72;99118.25;5062867;28;20186;-41
2021/12/01 09:17:12;;;;;;;78.93;41.10;;;;;;;18.74;52.13;99125.28;5062391;28;20055;-40
2021/12/01 09:19:42;;;;;;;71.20;39.40;;;;;;;18.73;52.07;99112.88;5062092;28;20152;-40
2021/12/01 09:22:08;;;;;;;71.65;39.63;;;;;;;18.74;52.11;99125.28;5064293;28;20045;-41
2021/12/01 09:24:35;;;;;;;71.32;39.22;;;;;;;18.74;51.78;99122.59;5062848;28;20044;-41
2021/12/01 09:27:02;;;;;;;69.30;36.47;;;;;;;18.73;52.00;99123.63;5060099;28;20809;-40
2021/12/01 09:29:29;;;;;;;67.38;37.78;;;;;;;18.72;51.92;99132.69;5059276;28;20128;-41
2021/12/01 09:31:57;;;;;;;62.40;34.72;;;;;;;18.71;52.03;99136.41;5064109;28;20478;-41
2021/12/01 09:34:24;;;;;;;57.58;33.25;;;;;;;18.71;52.15;99135.56;5063578;28;20060;-38
2021/12/01 09:36:50;;;;;;;58.20;31.25;;;;;;;18.70;52.22;99148.16;5061338;28;20604;-38
2021/12/01 09:39:17;;;;;;;52.42;29.83;;;;;;;18.68;51.98;99139.44;5060649;28;20060;-38
2021/12/01 09:41:44;;;;;;;57.63;31.08;;;;;;;18.67;51.85;99137.78;5066447;28;20045;-41
2021/12/01 09:44:10;;;;;;;49.65;27.60;;;;;;;18.67;52.01;99140.47;5060853;28;20076;-40
2021/12/01 09:46:37;;;;;;;50.08;26.50;;;;;;;18.66;51.89;99133.47;5063099;28;20045;-39
2021/12/01 09:49:04;;;;;;;45.20;25.35;;;;;;;18.65;51.89;99139.88;5063323;28;20088;-39
2021/12/01 09:51:30;;;;;;;42.20;22.77;;;;;;;18.65;51.89;99155.97;5059149;28;20044;-39
2021/12/01 09:53:57;;;;;;;43.80;23.27;;;;;;;18.66;51.88;99152.25;5066419;28;20179;-39
2021/12/01 09:56:25;;;;;;;45.80;24.05;;;;;;;18.65;51.55;99150.59;5063958;28;20048;-39
2021/12/01 09:58:51;;;;;;;40.25;20.55;;;;;;;18.65;51.87;99147.91;5061080;28;20044;-39
2021/12/01 10:01:21;;;;;;;36.67;19.75;;;;;;;18.65;51.60;99147.91;5062517;28;20057;-39
2021/12/01 10:03:48;;;;;;;35.85;18.02;;;;;;;18.65;51.87;99155.97;5060449;28;20045;-38
2021/12/01 10:06:18;;;;;;;37.97;20.45;;;;;;;18.66;52.07;99154.09;5070379;28;20135;-39
2021/12/01 10:09:05;;;;;;;46.47;25.05;;;;;;;18.66;51.79;99157.63;5066599;28;20139;-39
2021/12/01 10:11:41;;;;;;;47.45;25.40;;;;;;;18.67;51.47;99153.91;5067372;28;20123;-39
2021/12/01 10:14:16;;;;;;;44.47;24.17;;;;;;;18.67;51.96;99151.22;5066457;28;20428;-39
2021/12/01 10:16:44;;;;;;;40.63;21.23;;;;;;;18.66;51.81;99156.78;5062522;28;20127;-39
2021/12/01 10:19:13;;;;;;;40.60;21.75;;;;;;;18.66;51.71;99149.56;5067364;28;20052;-39
2021/12/01 10:21:48;;;;;;;40.78;22.80;;;;;;;18.66;51.50;99144.19;5064873;28;20075;-39
2021/12/01 10:24:24;;;;;;;41.33;22.48;;;;;;;18.67;51.39;99139.66;5067994;28;20415;-39
2021/12/01 10:26:59;;;;;;;44.08;21.05;;;;;;;18.67;51.74;99137.78;5063479;28;20487;-39
2021/12/01 10:29:32;;;;;;;39.72;20.42;;;;;;;18.67;52.18;99140.47;5069893;28;20696;-39
2021/12/01 10:32:19;;;;;;;37.75;20.13;;;;;;;18.67;52.19;99131.59;5064091;28;20128;-39
2021/12/01 10:34:50;;;;;;;37.88;19.75;;;;;;;18.68;52.41;99134.06;5066141;28;20049;-38
2021/12/01 10:37:23;;;;;;;38.95;20.05;;;;;;;18.69;52.50;99132.22;5063887;28;20511;-39
2021/12/01 10:40:11;;;;;;;42.10;19.13;;;;;;;18.70;52.78;99129.38;5067180;28;20471;-39
2021/12/01 10:43:00;;;;;;;37.95;18.17;;;;;;;18.72;52.92;99131.84;5051022;28;20040;-38
2021/12/01 10:45:39;;;;;;;55.35;23.17;;;;;;;18.77;52.63;99123.19;5065246;28;20041;-39
2021/12/01 10:48:09;;;;;;;46.67;20.98;;;;;;;18.79;53.31;99127.34;5067413;28;20119;-39
2021/12/01 10:50:39;;;;;;;60.42;23.67;;;;;;;18.80;53.33;99128.16;5064428;28;20390;-39
2021/12/01 10:53:13;;;;;;;88.85;40.40;;;;;;;18.80;53.10;99128.16;5066250;28;20052;-39
2021/12/01 10:55:46;;;;;;;92.20;37.88;;;;;;;18.81;53.45;99133.31;5065639;28;20368;-39
2021/12/01 10:58:15;;;;;;;88.68;39.70;;;;;;;18.82;53.27;99123.44;5063915;28;20044;-39
2021/12/01 11:00:49;;;;;;;86.78;34.30;;;;;;;18.83;52.81;99122.41;5065877;28;20143;-39
2021/12/01 11:03:24;;;;;;;89.57;36.47;;;;;;;18.82;52.69;99124.28;5068491;28;20059;-39
2021/12/01 11:06:08;;;;;;;85.30;33.72;;;;;;;18.82;52.71;99124.28;5065399;28;20397;-39
2021/12/01 11:08:37;;;;;;;76.90;32.70;;;;;;;18.83;52.51;99127.78;5063014;28;20131;-39
2021/12/01 11:11:07;;;;;;;86.28;33.80;;;;;;;18.82;52.76;99137.69;5067076;28;20136;-39
2021/12/01 11:13:36;;;;;;;75.18;30.17;;;;;;;18.83;52.71;99135.84;5062837;28;20056;-40
2021/12/01 11:16:12;;;;;;;66.03;30.25;;;;;;;18.82;52.52;99126.97;5065518;28;20052;-39
2021/12/01 11:18:49;;;;;;;64.55;29.75;;;;;;;18.82;52.66;99136.88;5066944;28;20404;-39
2021/12/01 11:21:23;;;;;;;71.88;27.27;;;;;;;18.80;52.34;99144.28;5065809;28;20062;-39
2021/12/01 11:23:53;;;;;;;57.22;26.40;;;;;;;18.78;52.16;99132.94;5064940;28;20127;-39
2021/12/01 11:26:22;;;;;;;55.75;24.40;;;;;;;18.78;51.65;99127.56;5065814;28;20447;-39
2021/12/01 11:28:49;;;;;;;55.42;24.05;;;;;;;18.76;51.62;99138.47;5065156;28;20131;-39
2021/12/01 11:31:20;;;;;;;56.30;26.73;;;;;;;18.76;51.80;99133.09;5060955;28;20137;-39